createdAt,value
2017-10-20T00:00:18.821Z,12.23
2017-10-20T00:01:19.165Z,12.19
2017-10-20T00:02:19.128Z,12.23
2017-10-20T00:03:19.112Z,12.22
2017-10-20T00:04:19.465Z,12.16
2017-10-20T00:05:18.755Z,12.2
2017-10-20T00:06:19.094Z,12.13
2017-10-20T00:07:18.739Z,12.18
2017-10-20T00:08:18.736Z,12.2
2017-10-20T00:09:19.066Z,12.15
2017-10-20T00:10:19.106Z,12.03
2017-10-20T00:11:19.392Z,12.01
2017-10-20T00:12:19.062Z,12.11
2017-10-20T00:13:18.696Z,12.05
2017-10-20T00:14:19.029Z,12
2017-10-20T00:15:18.673Z,11.95
2017-10-20T00:16:18.666Z,11.98
2017-10-20T00:17:18.663Z,12
2017-10-20T00:18:18.654Z,11.98
2017-10-20T00:19:18.648Z,12.03
2017-10-20T00:20:18.999Z,12.04
2017-10-20T00:21:18.628Z,11.98
2017-10-20T00:22:18.962Z,12.04
2017-10-20T00:23:19.294Z,12
2017-10-20T00:24:18.603Z,12.04
2017-10-20T00:25:18.595Z,12.03
2017-10-20T00:26:18.644Z,12.03
2017-10-20T00:27:18.620Z,12.03
2017-10-20T00:28:18.569Z,11.89
2017-10-20T00:29:18.562Z,11.89
2017-10-20T00:30:18.555Z,11.97
2017-10-20T00:31:18.918Z,11.97
2017-10-20T00:32:18.534Z,11.97
2017-10-20T00:33:18.540Z,11.98
2017-10-20T00:34:18.859Z,11.98
2017-10-20T00:35:18.849Z,12.05
2017-10-20T00:36:18.504Z,11.91
2017-10-20T00:37:19.220Z,11.84
2017-10-20T00:38:18.486Z,11.85
2017-10-20T00:39:18.826Z,11.94
2017-10-20T00:40:18.810Z,11.89
2017-10-20T00:41:18.805Z,11.81
2017-10-20T00:42:18.456Z,11.79
2017-10-20T00:43:18.838Z,11.88
2017-10-20T00:44:18.821Z,11.88
2017-10-20T00:45:19.117Z,11.95
2017-10-20T00:46:18.771Z,11.89
2017-10-20T00:47:18.754Z,11.91
2017-10-20T00:48:18.741Z,11.95
2017-10-20T00:49:18.738Z,11.95
2017-10-20T00:50:18.729Z,11.95
2017-10-20T00:51:18.725Z,11.88
2017-10-20T00:52:18.738Z,12.01
2017-10-20T00:53:18.705Z,11.97
2017-10-20T00:54:18.400Z,12.03
2017-10-20T00:55:18.687Z,11.91
2017-10-20T00:56:18.338Z,11.97
2017-10-20T00:57:18.326Z,11.91
2017-10-20T00:58:18.658Z,11.89
2017-10-20T00:59:18.662Z,11.94
2017-10-20T01:00:18.304Z,11.91
2017-10-20T01:01:18.993Z,11.95
2017-10-20T01:02:18.284Z,11.97
2017-10-20T01:03:18.626Z,12.04
2017-10-20T01:04:18.616Z,12.04
2017-10-20T01:05:18.266Z,12.04
2017-10-20T01:06:18.614Z,12.1
2017-10-20T01:07:18.240Z,12.1
2017-10-20T01:08:18.236Z,12.19
2017-10-20T01:09:18.587Z,12.2
2017-10-20T01:10:18.562Z,12.13
2017-10-20T01:11:18.212Z,12.13
2017-10-20T01:12:18.204Z,12.08
2017-10-20T01:13:18.214Z,12.03
2017-10-20T01:14:18.524Z,12.04
2017-10-20T01:15:18.549Z,12.04
2017-10-20T01:16:18.229Z,12.04
2017-10-20T01:17:18.514Z,11.95
2017-10-20T01:18:18.380Z,11.91
2017-10-20T01:19:18.139Z,12.04
2017-10-20T01:20:18.477Z,11.97
2017-10-20T01:21:18.124Z,12.01
2017-10-20T01:22:18.117Z,11.89
2017-10-20T01:23:18.108Z,11.89
2017-10-20T01:24:18.461Z,11.88
2017-10-20T01:25:18.794Z,11.79
2017-10-20T01:26:18.773Z,11.78
2017-10-20T01:27:18.438Z,11.81
2017-10-20T01:28:18.444Z,11.88
2017-10-20T01:29:18.104Z,11.91
2017-10-20T01:30:18.067Z,11.94
2017-10-20T01:31:18.049Z,11.91
2017-10-20T01:32:18.374Z,11.88
2017-10-20T01:33:18.371Z,11.88
2017-10-20T01:34:18.023Z,11.88
2017-10-20T01:35:18.354Z,11.89
2017-10-20T01:36:18.353Z,11.94
2017-10-20T01:37:18.356Z,11.98
2017-10-20T01:38:17.982Z,11.97
2017-10-20T01:39:17.985Z,11.91
2017-10-20T01:40:18.319Z,11.94
2017-10-20T01:41:17.978Z,11.89
2017-10-20T01:42:18.313Z,11.97
2017-10-20T01:43:18.294Z,11.95
2017-10-20T01:44:18.274Z,11.91
2017-10-20T01:45:17.926Z,11.91
2017-10-20T01:46:17.916Z,11.82
2017-10-20T01:47:18.253Z,11.82
2017-10-20T01:48:18.261Z,11.85
2017-10-20T01:49:17.940Z,11.94
2017-10-20T01:50:17.881Z,11.82
2017-10-20T01:51:18.573Z,11.89
2017-10-20T01:52:17.872Z,11.88
2017-10-20T01:53:18.539Z,11.91
2017-10-20T01:54:17.851Z,11.88
2017-10-20T01:55:17.840Z,11.78
2017-10-20T01:56:18.175Z,11.88
2017-10-20T01:57:17.822Z,11.94
2017-10-20T01:58:17.831Z,11.89
2017-10-20T01:59:17.806Z,11.85
2017-10-20T02:00:17.848Z,11.86
2017-10-20T02:01:17.790Z,11.88
2017-10-20T02:02:18.121Z,11.82
2017-10-20T02:03:17.796Z,11.85
2017-10-20T02:04:18.360Z,11.81
2017-10-20T02:05:18.458Z,11.82
2017-10-20T02:06:18.089Z,11.66
2017-10-20T02:07:17.754Z,11.71
2017-10-20T02:08:18.074Z,11.57
2017-10-20T02:09:17.720Z,11.63
2017-10-20T02:10:17.727Z,11.59
2017-10-20T02:11:17.761Z,11.6
2017-10-20T02:12:18.059Z,11.56
2017-10-20T02:13:18.044Z,11.48
2017-10-20T02:14:17.681Z,11.42
2017-10-20T02:15:17.672Z,11.3
2017-10-20T02:16:18.005Z,11.3
2017-10-20T02:17:17.700Z,11.28
2017-10-20T02:18:17.647Z,11.34
2017-10-20T02:19:17.654Z,11.38
2017-10-20T02:20:18.314Z,11.3
2017-10-20T02:21:17.625Z,11.35
2017-10-20T02:22:17.614Z,11.35
2017-10-20T02:23:17.645Z,11.34
2017-10-20T02:24:17.938Z,11.33
2017-10-20T02:25:17.584Z,11.28
2017-10-20T02:26:17.919Z,11.3
2017-10-20T02:27:17.628Z,11.31
2017-10-20T02:28:17.581Z,11.33
2017-10-20T02:29:17.549Z,11.23
2017-10-20T02:30:17.561Z,11.23
2017-10-20T02:31:17.557Z,11.26
2017-10-20T02:32:17.871Z,11.26
2017-10-20T02:33:17.517Z,11.16
2017-10-20T02:34:17.885Z,11.1
2017-10-20T02:35:17.840Z,11.13
2017-10-20T02:36:17.489Z,11.16
2017-10-20T02:37:17.498Z,11.08
2017-10-20T02:38:17.870Z,11.02
2017-10-20T02:39:17.668Z,11
2017-10-20T02:40:17.811Z,10.98
2017-10-20T02:41:17.447Z,11.02
2017-10-20T02:42:17.440Z,10.94
2017-10-20T02:43:17.431Z,10.95
2017-10-20T02:44:17.786Z,10.98
2017-10-20T02:45:17.776Z,10.92
2017-10-20T02:46:17.403Z,10.88
2017-10-20T02:47:17.762Z,10.91
2017-10-20T02:48:17.758Z,10.91
2017-10-20T02:49:17.740Z,10.94
2017-10-20T02:50:17.742Z,10.87
2017-10-20T02:51:17.703Z,10.9
2017-10-20T02:52:17.348Z,10.79
2017-10-20T02:53:17.346Z,10.8
2017-10-20T02:54:17.680Z,10.84
2017-10-20T02:55:17.387Z,10.83
2017-10-20T02:56:17.318Z,10.91
2017-10-20T02:57:17.649Z,10.87
2017-10-20T02:58:17.983Z,10.88
2017-10-20T02:59:17.309Z,10.94
2017-10-20T03:00:17.626Z,11.06
2017-10-20T03:01:17.610Z,11.05
2017-10-20T03:02:17.263Z,11.06
2017-10-20T03:03:17.624Z,11.02
2017-10-20T03:04:17.592Z,11.02
2017-10-20T03:05:17.235Z,11.05
2017-10-20T03:06:17.231Z,11.02
2017-10-20T03:07:17.218Z,11
2017-10-20T03:08:17.559Z,11.03
2017-10-20T03:09:17.203Z,11.05
2017-10-20T03:10:17.192Z,11.05
2017-10-20T03:11:17.524Z,10.98
2017-10-20T03:12:17.185Z,11.1
2017-10-20T03:13:17.165Z,11
2017-10-20T03:14:17.160Z,11.05
2017-10-20T03:15:17.149Z,11.05
2017-10-20T03:16:17.153Z,11
2017-10-20T03:17:17.132Z,11.05
2017-10-20T03:18:17.130Z,11.09
2017-10-20T03:19:17.128Z,11.03
2017-10-20T03:20:17.100Z,11.02
2017-10-20T03:21:17.097Z,11.05
2017-10-20T03:22:17.084Z,10.94
2017-10-20T03:23:17.087Z,11
2017-10-20T03:24:17.409Z,10.85
2017-10-20T03:25:17.058Z,10.84
2017-10-20T03:26:17.413Z,10.77
2017-10-20T03:27:17.378Z,10.8
2017-10-20T03:28:17.768Z,10.8
2017-10-20T03:29:17.365Z,10.75
2017-10-20T03:30:17.360Z,10.8
2017-10-20T03:31:17.349Z,10.75
2017-10-20T03:32:16.993Z,10.66
2017-10-20T03:33:17.663Z,10.7
2017-10-20T03:34:17.108Z,10.65
2017-10-20T03:35:16.964Z,10.69
2017-10-20T03:36:16.964Z,10.67
2017-10-20T03:37:16.955Z,10.58
2017-10-20T03:38:16.938Z,10.61
2017-10-20T03:39:17.390Z,10.57
2017-10-20T03:40:16.926Z,10.55
2017-10-20T03:41:17.432Z,10.55
2017-10-20T03:42:16.901Z,10.59
2017-10-20T03:43:17.253Z,10.55
2017-10-20T03:44:16.884Z,10.55
2017-10-20T03:45:17.222Z,10.63
2017-10-20T03:46:17.551Z,10.61
2017-10-20T03:47:16.858Z,10.65
2017-10-20T03:48:16.848Z,10.59
2017-10-20T03:49:17.184Z,10.67
2017-10-20T03:50:17.172Z,10.66
2017-10-20T03:51:17.170Z,10.66
2017-10-20T03:52:16.813Z,10.66
2017-10-20T03:53:17.168Z,10.69
2017-10-20T03:54:16.795Z,10.69
2017-10-20T03:55:16.800Z,10.73
2017-10-20T03:56:17.453Z,10.66
2017-10-20T03:57:16.764Z,10.72
2017-10-20T03:58:17.102Z,10.75
2017-10-20T03:59:17.101Z,10.84
2017-10-20T04:00:16.759Z,10.77
2017-10-20T04:01:16.729Z,10.85
2017-10-20T04:02:16.722Z,10.88
2017-10-20T04:03:17.398Z,10.95
2017-10-20T04:04:16.702Z,10.87
2017-10-20T04:05:16.695Z,10.88
2017-10-20T04:06:17.021Z,10.85
2017-10-20T04:07:17.024Z,10.95
2017-10-20T04:08:16.673Z,10.91
2017-10-20T04:09:16.657Z,10.76
2017-10-20T04:10:16.982Z,10.8
2017-10-20T04:11:16.638Z,10.76
2017-10-20T04:12:16.983Z,10.91
2017-10-20T04:13:16.620Z,10.91
2017-10-20T04:14:17.296Z,11.02
2017-10-20T04:15:16.599Z,10.92
2017-10-20T04:16:16.592Z,10.95
2017-10-20T04:17:16.603Z,11
2017-10-20T04:18:16.914Z,11.05
2017-10-20T04:19:16.914Z,11.12
2017-10-20T04:20:16.896Z,11.1
2017-10-20T04:21:16.893Z,11.18
2017-10-20T04:22:16.539Z,11.21
2017-10-20T04:23:16.528Z,11.34
2017-10-20T04:24:16.865Z,11.3
2017-10-20T04:25:16.849Z,11.27
2017-10-20T04:26:16.520Z,11.33
2017-10-20T04:27:16.491Z,11.28
2017-10-20T04:28:16.825Z,11.27
2017-10-20T04:29:16.475Z,11.2
2017-10-20T04:30:16.496Z,11.13
2017-10-20T04:31:16.803Z,11.12
2017-10-20T04:32:16.447Z,11.1
2017-10-20T04:33:16.481Z,11.12
2017-10-20T04:34:16.434Z,11.16
2017-10-20T04:35:16.786Z,11.21
2017-10-20T04:36:16.413Z,11.13
2017-10-20T04:37:16.409Z,11.18
2017-10-20T04:38:17.078Z,11.12
2017-10-20T04:39:16.727Z,11.23
2017-10-20T04:40:16.719Z,11.23
2017-10-20T04:41:17.055Z,11.21
2017-10-20T04:42:16.704Z,11.26
2017-10-20T04:43:16.696Z,11.31
2017-10-20T04:44:16.685Z,11.31
2017-10-20T04:45:16.675Z,11.35
2017-10-20T04:46:16.325Z,11.3
2017-10-20T04:47:16.675Z,11.35
2017-10-20T04:48:16.646Z,11.39
2017-10-20T04:49:16.647Z,11.42
2017-10-20T04:50:16.289Z,11.43
2017-10-20T04:51:16.628Z,11.52
2017-10-20T04:52:16.611Z,11.51
2017-10-20T04:53:16.261Z,11.51
2017-10-20T04:54:16.252Z,11.45
2017-10-20T04:55:16.926Z,11.57
2017-10-20T04:56:16.595Z,11.56
2017-10-20T04:57:16.226Z,11.59
2017-10-20T04:58:16.217Z,11.66
2017-10-20T04:59:16.546Z,11.66
2017-10-20T05:00:16.879Z,11.67
2017-10-20T05:01:16.535Z,11.82
2017-10-20T05:02:16.184Z,11.75
2017-10-20T05:03:16.857Z,11.78
2017-10-20T05:04:16.510Z,11.76
2017-10-20T05:05:16.158Z,11.89
2017-10-20T05:06:16.148Z,11.76
2017-10-20T05:07:16.481Z,11.86
2017-10-20T05:08:16.129Z,11.89
2017-10-20T05:09:16.806Z,11.95
2017-10-20T05:10:16.474Z,11.89
2017-10-20T05:11:16.103Z,11.88
2017-10-20T05:12:16.782Z,11.89
2017-10-20T05:13:16.430Z,11.94
2017-10-20T05:14:16.420Z,11.95
2017-10-20T05:15:16.070Z,11.91
2017-10-20T05:16:16.062Z,11.91
2017-10-20T05:17:16.412Z,12.04
2017-10-20T05:18:16.056Z,11.95
2017-10-20T05:19:16.377Z,12.01
2017-10-20T05:20:16.029Z,12.01
2017-10-20T05:21:16.370Z,12.04
2017-10-20T05:22:16.035Z,12.07
2017-10-20T05:23:16.001Z,12.01
2017-10-20T05:24:16.335Z,11.97
2017-10-20T05:25:16.324Z,12
2017-10-20T05:26:15.980Z,12
2017-10-20T05:27:16.307Z,12.04
2017-10-20T05:28:16.677Z,12.03
2017-10-20T05:29:16.650Z,12.08
2017-10-20T05:30:15.943Z,12.11
2017-10-20T05:31:16.280Z,12.08
2017-10-20T05:32:15.951Z,12.04
2017-10-20T05:33:16.261Z,12.01
2017-10-20T05:34:16.251Z,12.08
2017-10-20T05:35:16.243Z,12.03
2017-10-20T05:36:16.243Z,12.1
2017-10-20T05:37:16.234Z,12.01
2017-10-20T05:38:16.215Z,12.01
2017-10-20T05:39:16.551Z,12.05
2017-10-20T05:40:16.208Z,12.05
2017-10-20T05:41:15.854Z,12.07
2017-10-20T05:42:16.573Z,12
2017-10-20T05:43:16.194Z,11.94
2017-10-20T05:44:16.167Z,11.95
2017-10-20T05:45:16.174Z,11.95
2017-10-20T05:46:16.186Z,11.91
2017-10-20T05:47:15.954Z,11.81
2017-10-20T05:48:15.791Z,11.89
2017-10-20T05:49:15.800Z,11.79
2017-10-20T05:50:15.777Z,11.85
2017-10-20T05:51:16.107Z,11.79
2017-10-20T05:52:15.772Z,11.79
2017-10-20T05:53:16.453Z,11.78
2017-10-20T05:54:15.778Z,11.66
2017-10-20T05:55:16.079Z,11.57
2017-10-20T05:56:15.729Z,11.57
2017-10-20T05:57:15.720Z,11.61
2017-10-20T05:58:16.054Z,11.61
2017-10-20T05:59:15.708Z,11.52
2017-10-20T06:00:16.050Z,11.46
2017-10-20T06:01:16.029Z,11.46
2017-10-20T06:02:16.020Z,11.48
2017-10-20T06:03:15.674Z,11.43
2017-10-20T06:04:16.026Z,11.48
2017-10-20T06:05:15.649Z,11.39
2017-10-20T06:06:16.348Z,11.48
2017-10-20T06:07:15.968Z,11.42
2017-10-20T06:08:15.627Z,11.39
2017-10-20T06:09:15.639Z,11.39
2017-10-20T06:10:15.958Z,11.46
2017-10-20T06:11:15.955Z,11.45
2017-10-20T06:12:15.969Z,11.53
2017-10-20T06:13:15.926Z,11.56
2017-10-20T06:14:15.943Z,11.56
2017-10-20T06:15:15.938Z,11.66
2017-10-20T06:16:16.240Z,11.71
2017-10-20T06:17:15.899Z,11.79
2017-10-20T06:18:15.877Z,11.75
2017-10-20T06:19:15.531Z,11.85
2017-10-20T06:20:15.865Z,11.78
2017-10-20T06:21:15.536Z,11.94
2017-10-20T06:22:15.845Z,12.03
2017-10-20T06:23:15.834Z,12
2017-10-20T06:24:15.829Z,12.03
2017-10-20T06:25:15.485Z,12.11
2017-10-20T06:26:15.476Z,12.13
2017-10-20T06:27:15.814Z,12.2
2017-10-20T06:28:15.453Z,12.13
2017-10-20T06:29:15.449Z,12.19
2017-10-20T06:30:16.129Z,12.2
2017-10-20T06:31:15.436Z,12.28
2017-10-20T06:32:15.441Z,12.31
2017-10-20T06:33:15.430Z,12.34
2017-10-20T06:34:15.747Z,12.43
2017-10-20T06:35:15.398Z,12.44
2017-10-20T06:36:15.387Z,12.61
2017-10-20T06:37:15.741Z,12.53
2017-10-20T06:38:15.712Z,12.55
2017-10-20T06:39:16.055Z,12.62
2017-10-20T06:40:15.709Z,12.73
2017-10-20T06:41:15.689Z,12.8
2017-10-20T06:42:15.358Z,12.8
2017-10-20T06:43:15.690Z,12.88
2017-10-20T06:44:15.328Z,13.01
2017-10-20T06:45:15.660Z,12.98
2017-10-20T06:46:15.324Z,12.96
2017-10-20T06:47:15.330Z,13.09
2017-10-20T06:48:15.632Z,13.01
2017-10-20T06:49:15.288Z,13.09
2017-10-20T06:50:15.620Z,13.14
2017-10-20T06:51:15.270Z,13.13
2017-10-20T06:52:15.283Z,13.24
2017-10-20T06:53:15.599Z,13.21
2017-10-20T06:54:15.267Z,13.2
2017-10-20T06:55:15.578Z,13.17
2017-10-20T06:56:15.227Z,13.24
2017-10-20T06:57:15.237Z,13.35
2017-10-20T06:58:15.559Z,13.32
2017-10-20T06:59:15.206Z,13.28
2017-10-20T07:00:15.542Z,13.27
2017-10-20T07:01:15.542Z,13.29
2017-10-20T07:02:15.541Z,13.36
2017-10-20T07:03:15.181Z,13.35
2017-10-20T07:04:15.172Z,13.29
2017-10-20T07:05:15.533Z,13.37
2017-10-20T07:06:15.880Z,13.31
2017-10-20T07:07:15.823Z,13.29
2017-10-20T07:08:15.142Z,13.39
2017-10-20T07:09:15.476Z,13.36
2017-10-20T07:10:15.168Z,13.35
2017-10-20T07:11:15.115Z,13.42
2017-10-20T07:12:15.810Z,13.42
2017-10-20T07:13:15.105Z,13.45
2017-10-20T07:14:15.109Z,13.45
2017-10-20T07:15:15.090Z,13.54
2017-10-20T07:16:15.783Z,13.55
2017-10-20T07:17:15.077Z,13.55
2017-10-20T07:18:15.406Z,13.72
2017-10-20T07:19:15.747Z,13.68
2017-10-20T07:20:15.069Z,13.72
2017-10-20T07:21:15.385Z,13.83
2017-10-20T07:22:15.037Z,13.84
2017-10-20T07:23:15.032Z,13.91
2017-10-20T07:24:15.027Z,13.99
2017-10-20T07:25:15.019Z,13.97
2017-10-20T07:26:15.352Z,14.02
2017-10-20T07:27:15.344Z,14.08
2017-10-20T07:28:15.002Z,14.09
2017-10-20T07:29:14.987Z,14.09
2017-10-20T07:30:15.328Z,14.11
2017-10-20T07:31:15.320Z,14.09
2017-10-20T07:32:14.982Z,14.06
2017-10-20T07:33:14.962Z,14.09
2017-10-20T07:34:15.301Z,14.05
2017-10-20T07:35:14.951Z,14.13
2017-10-20T07:36:14.940Z,14.06
2017-10-20T07:37:15.317Z,14.08
2017-10-20T07:38:15.287Z,14.15
2017-10-20T07:39:14.921Z,14.12
2017-10-20T07:40:15.271Z,14.21
2017-10-20T07:41:15.592Z,14.24
2017-10-20T07:42:14.903Z,14.26
2017-10-20T07:43:14.894Z,14.27
2017-10-20T07:44:15.248Z,14.31
2017-10-20T07:45:14.885Z,14.33
2017-10-20T07:46:14.874Z,14.42
2017-10-20T07:47:14.869Z,14.46
2017-10-20T07:48:15.218Z,14.39
2017-10-20T07:49:15.205Z,14.38
2017-10-20T07:50:14.850Z,14.44
2017-10-20T07:51:15.203Z,14.46
2017-10-20T07:52:14.837Z,14.49
2017-10-20T07:53:14.831Z,14.53
2017-10-20T07:54:15.175Z,14.53
2017-10-20T07:55:15.162Z,14.51
2017-10-20T07:56:15.165Z,14.46
2017-10-20T07:57:14.804Z,14.53
2017-10-20T07:58:14.797Z,14.48
2017-10-20T07:59:14.795Z,14.53
2017-10-20T08:00:15.151Z,14.57
2017-10-20T08:01:15.464Z,14.66
2017-10-20T08:02:15.118Z,14.66
2017-10-20T08:03:15.452Z,14.67
2017-10-20T08:04:15.144Z,14.8
2017-10-20T08:05:15.106Z,14.85
2017-10-20T08:06:15.090Z,14.83
2017-10-20T08:07:14.741Z,14.94
2017-10-20T08:08:14.735Z,14.87
2017-10-20T08:09:14.730Z,14.98
2017-10-20T08:10:15.412Z,15.08
2017-10-20T08:11:14.718Z,15.07
2017-10-20T08:12:15.077Z,15.02
2017-10-20T08:13:15.398Z,15.04
2017-10-20T08:14:15.044Z,15.05
2017-10-20T08:15:14.695Z,15.08
2017-10-20T08:16:14.694Z,15.13
2017-10-20T08:17:14.691Z,15.13
2017-10-20T08:18:14.680Z,15.25
2017-10-20T08:19:14.667Z,15.26
2017-10-20T08:20:14.661Z,15.27
2017-10-20T08:21:14.662Z,15.33
2017-10-20T08:22:14.662Z,15.41
2017-10-20T08:23:14.667Z,15.47
2017-10-20T08:24:14.987Z,15.45
2017-10-20T08:25:15.324Z,15.52
2017-10-20T08:26:14.989Z,15.6
2017-10-20T08:27:14.626Z,15.63
2017-10-20T08:28:14.971Z,15.73
2017-10-20T08:29:14.613Z,15.77
2017-10-20T08:30:14.960Z,15.75
2017-10-20T08:31:14.946Z,15.86
2017-10-20T08:32:14.946Z,15.89
2017-10-20T08:33:14.977Z,15.92
2017-10-20T08:34:14.981Z,15.89
2017-10-20T08:35:14.925Z,15.95
2017-10-20T08:36:14.582Z,15.98
2017-10-20T08:37:14.573Z,15.84
2017-10-20T08:38:14.567Z,15.89
2017-10-20T08:39:14.903Z,15.91
2017-10-20T08:40:14.894Z,15.89
2017-10-20T08:41:14.569Z,15.84
2017-10-20T08:42:15.226Z,15.73
2017-10-20T08:43:14.543Z,15.83
2017-10-20T08:44:15.225Z,15.89
2017-10-20T08:45:14.532Z,15.84
2017-10-20T08:46:14.864Z,15.88
2017-10-20T08:47:14.861Z,15.73
2017-10-20T08:48:14.860Z,15.75
2017-10-20T08:49:14.872Z,15.73
2017-10-20T08:50:14.507Z,15.83
2017-10-20T08:51:14.503Z,15.91
2017-10-20T08:52:14.849Z,15.86
2017-10-20T08:53:14.492Z,15.88
2017-10-20T08:54:14.484Z,15.84
2017-10-20T08:55:14.480Z,15.96
2017-10-20T08:56:14.473Z,15.99
2017-10-20T08:57:14.467Z,16.08
2017-10-20T08:58:15.165Z,16.04
2017-10-20T08:59:14.794Z,16.06
2017-10-20T09:00:14.455Z,16.1
2017-10-20T09:01:14.449Z,16.07
2017-10-20T09:02:14.442Z,16.02
2017-10-20T09:03:14.438Z,16.06
2017-10-20T09:04:14.778Z,16.02
2017-10-20T09:05:14.767Z,16.07
2017-10-20T09:06:14.432Z,16.07
2017-10-20T09:07:14.782Z,16.08
2017-10-20T09:08:14.434Z,16.1
2017-10-20T09:09:14.417Z,16
2017-10-20T09:10:14.744Z,16.06
2017-10-20T09:11:14.739Z,16.08
2017-10-20T09:12:15.080Z,16.07
2017-10-20T09:13:14.736Z,16.16
2017-10-20T09:14:14.725Z,16.1
2017-10-20T09:15:14.727Z,16.08
2017-10-20T09:16:14.727Z,16.08
2017-10-20T09:17:14.369Z,16.18
2017-10-20T09:18:14.706Z,16.14
2017-10-20T09:19:14.714Z,16.21
2017-10-20T09:20:14.707Z,16.13
2017-10-20T09:21:14.688Z,16.14
2017-10-20T09:22:14.688Z,16.25
2017-10-20T09:23:14.341Z,16.18
2017-10-20T09:24:14.677Z,16.33
2017-10-20T09:25:14.335Z,16.13
2017-10-20T09:26:14.325Z,16.25
2017-10-20T09:27:14.320Z,16.26
2017-10-20T09:28:14.318Z,16.29
2017-10-20T09:29:14.671Z,16.34
2017-10-20T09:30:14.676Z,16.39
2017-10-20T09:31:14.640Z,16.39
2017-10-20T09:32:14.642Z,16.51
2017-10-20T09:33:14.293Z,16.51
2017-10-20T09:34:14.652Z,16.63
2017-10-20T09:35:14.291Z,16.69
2017-10-20T09:36:14.281Z,16.85
2017-10-20T09:37:14.953Z,16.94
2017-10-20T09:38:14.271Z,17.1
2017-10-20T09:39:14.613Z,17.27
2017-10-20T09:40:14.600Z,17.49
2017-10-20T09:41:14.609Z,17.54
2017-10-20T09:42:14.969Z,17.84
2017-10-20T09:43:14.251Z,17.99
2017-10-20T09:44:14.246Z,18.21
2017-10-20T09:45:14.583Z,18.2
2017-10-20T09:46:14.584Z,18.31
2017-10-20T09:47:14.582Z,18.5
2017-10-20T09:48:14.229Z,18.5
2017-10-20T09:49:14.565Z,18.53
2017-10-20T09:50:14.226Z,18.5
2017-10-20T09:51:14.823Z,18.5
2017-10-20T09:52:14.556Z,18.36
2017-10-20T09:53:14.210Z,18.32
2017-10-20T09:54:14.887Z,18.21
2017-10-20T09:55:14.208Z,18.08
2017-10-20T09:56:14.540Z,17.96
2017-10-20T09:57:14.541Z,17.99
2017-10-20T09:58:14.542Z,17.88
2017-10-20T09:59:14.540Z,17.99
2017-10-20T10:00:14.197Z,18.21
2017-10-20T10:01:14.188Z,18.31
2017-10-20T10:02:14.566Z,18.34
2017-10-20T10:03:14.521Z,18.53
2017-10-20T10:04:14.172Z,18.71
2017-10-20T10:05:14.172Z,18.68
2017-10-20T10:06:14.856Z,18.76
2017-10-20T10:07:14.865Z,18.89
2017-10-20T10:08:14.184Z,19.05
2017-10-20T10:09:14.499Z,19.19
2017-10-20T10:10:14.158Z,19.35
2017-10-20T10:11:14.154Z,19.4
2017-10-20T10:12:14.156Z,19.46
2017-10-20T10:13:14.520Z,19.47
2017-10-20T10:14:14.144Z,19.49
2017-10-20T10:15:14.485Z,19.46
2017-10-20T10:16:14.142Z,19.38
2017-10-20T10:17:14.137Z,19.31
2017-10-20T10:18:14.826Z,19.28
2017-10-20T10:19:14.480Z,19.25
2017-10-20T10:20:14.474Z,19.19
2017-10-20T10:21:14.124Z,19.28
2017-10-20T10:22:14.475Z,19.3
2017-10-20T10:23:14.801Z,19.32
2017-10-20T10:24:14.466Z,19.42
2017-10-20T10:25:14.116Z,19.4
2017-10-20T10:26:14.810Z,19.47
2017-10-20T10:27:14.114Z,19.34
2017-10-20T10:28:14.114Z,19.37
2017-10-20T10:29:14.462Z,19.37
2017-10-20T10:30:14.101Z,19.46
2017-10-20T10:31:14.120Z,19.43
2017-10-20T10:32:14.103Z,19.43
2017-10-20T10:33:14.442Z,19.37
2017-10-20T10:34:14.439Z,19.31
2017-10-20T10:35:14.440Z,19.27
2017-10-20T10:36:14.089Z,19.32
2017-10-20T10:37:14.086Z,19.34
2017-10-20T10:38:14.775Z,19.47
2017-10-20T10:39:14.426Z,19.38
2017-10-20T10:40:14.081Z,19.42
2017-10-20T10:41:14.078Z,19.38
2017-10-20T10:42:14.422Z,19.31
2017-10-20T10:43:14.072Z,19.28
2017-10-20T10:44:14.076Z,19.06
2017-10-20T10:45:14.757Z,18.97
2017-10-20T10:46:14.416Z,18.96
2017-10-20T10:47:14.411Z,18.89
2017-10-20T10:48:14.078Z,18.81
2017-10-20T10:49:14.072Z,18.74
2017-10-20T10:50:14.404Z,18.71
2017-10-20T10:51:14.075Z,18.71
2017-10-20T10:52:14.070Z,18.65
2017-10-20T10:53:14.391Z,18.61
2017-10-20T10:54:14.051Z,18.72
2017-10-20T10:55:14.796Z,18.81
2017-10-20T10:56:14.048Z,18.78
2017-10-20T10:57:14.388Z,18.81
2017-10-20T10:58:14.047Z,18.89
2017-10-20T10:59:14.038Z,18.84
2017-10-20T11:00:14.375Z,18.89
2017-10-20T11:01:14.407Z,18.79
2017-10-20T11:02:14.052Z,18.78
2017-10-20T11:03:14.033Z,18.71
2017-10-20T11:04:14.366Z,18.63
2017-10-20T11:05:14.370Z,18.66
2017-10-20T11:06:14.369Z,18.5
2017-10-20T11:07:14.361Z,18.54
2017-10-20T11:08:14.356Z,18.44
2017-10-20T11:09:14.698Z,18.34
2017-10-20T11:10:14.016Z,18.19
2017-10-20T11:11:14.369Z,18.21
2017-10-20T11:12:14.360Z,18.08
2017-10-20T11:13:14.365Z,18.02
2017-10-20T11:14:14.359Z,18.03
2017-10-20T11:15:14.338Z,17.84
2017-10-20T11:16:14.002Z,17.69
2017-10-20T11:17:13.995Z,17.47
2017-10-20T11:18:13.995Z,17.31
2017-10-20T11:19:14.677Z,17.3
2017-10-20T11:20:14.327Z,17.18
2017-10-20T11:21:14.665Z,17.05
2017-10-20T11:22:13.983Z,17
2017-10-20T11:23:14.322Z,16.91
2017-10-20T11:24:14.339Z,17.02
2017-10-20T11:25:14.665Z,16.9
2017-10-20T11:26:14.652Z,16.99
2017-10-20T11:27:14.325Z,16.9
2017-10-20T11:28:14.325Z,16.81
2017-10-20T11:29:14.311Z,16.76
2017-10-20T11:30:13.966Z,16.7
2017-10-20T11:31:13.976Z,16.54
2017-10-20T11:32:14.292Z,16.51
2017-10-20T11:33:13.947Z,16.54
2017-10-20T11:34:13.948Z,16.48
2017-10-20T11:35:13.939Z,16.37
2017-10-20T11:36:14.296Z,16.36
2017-10-20T11:37:14.612Z,16.26
2017-10-20T11:38:13.928Z,16.27
2017-10-20T11:39:14.625Z,16.26
2017-10-20T11:40:14.264Z,16.25
2017-10-20T11:41:14.284Z,16.3
2017-10-20T11:42:13.956Z,16.17
2017-10-20T11:43:13.938Z,16.22
2017-10-20T11:44:13.904Z,16.3
2017-10-20T11:45:14.247Z,16.33
2017-10-20T11:46:13.897Z,16.34
2017-10-20T11:47:13.892Z,16.26
2017-10-20T11:48:14.243Z,16.39
2017-10-20T11:49:14.223Z,16.29
2017-10-20T11:50:13.887Z,16.33
2017-10-20T11:51:14.214Z,16.37
2017-10-20T11:52:14.230Z,16.33
2017-10-20T11:53:14.214Z,16.33
2017-10-20T11:54:14.204Z,16.33
2017-10-20T11:55:14.559Z,16.29
2017-10-20T11:56:13.853Z,16.36
2017-10-20T11:57:13.850Z,16.29
2017-10-20T11:58:13.866Z,16.36
2017-10-20T11:59:14.179Z,16.33
2017-10-20T12:00:14.184Z,16.34
2017-10-20T12:01:14.207Z,16.37
2017-10-20T12:02:13.866Z,16.42
2017-10-20T12:03:14.173Z,16.48
2017-10-20T12:04:14.163Z,16.52
2017-10-20T12:05:13.813Z,16.59
2017-10-20T12:06:13.836Z,16.63
2017-10-20T12:07:20.072Z,16.65
2017-10-20T12:08:14.492Z,16.63
2017-10-20T12:09:14.157Z,16.7
2017-10-20T12:10:14.132Z,16.77
2017-10-20T12:11:13.789Z,16.82
2017-10-20T12:12:14.142Z,16.94
2017-10-20T12:13:13.786Z,16.92
2017-10-20T12:14:13.783Z,17.06
2017-10-20T12:15:14.119Z,16.97
2017-10-20T12:16:14.134Z,17
2017-10-20T12:17:14.294Z,17.07
2017-10-20T12:18:14.104Z,17.15
2017-10-20T12:19:14.095Z,17.13
2017-10-20T12:20:14.100Z,17.12
2017-10-20T12:21:14.431Z,17.18
2017-10-20T12:22:13.774Z,17.22
2017-10-20T12:23:13.744Z,17.27
2017-10-20T12:24:13.739Z,17.25
2017-10-20T12:25:14.166Z,17.35
2017-10-20T12:26:13.732Z,17.31
2017-10-20T12:27:14.064Z,17.31
2017-10-20T12:28:14.064Z,17.31
2017-10-20T12:29:14.058Z,17.2
2017-10-20T12:30:14.416Z,17.22
2017-10-20T12:31:13.711Z,17.25
2017-10-20T12:32:14.080Z,17.27
2017-10-20T12:33:14.046Z,17.28
2017-10-20T12:34:14.045Z,17.2
2017-10-20T12:35:13.698Z,17.18
2017-10-20T12:36:14.035Z,17.24
2017-10-20T12:37:14.026Z,17.22
2017-10-20T12:38:13.684Z,17.25
2017-10-20T12:39:14.042Z,17.21
2017-10-20T12:40:13.678Z,17.3
2017-10-20T12:41:14.015Z,17.25
2017-10-20T12:42:14.012Z,17.36
2017-10-20T12:43:14.027Z,17.32
2017-10-20T12:44:14.012Z,17.39
2017-10-20T12:45:13.665Z,17.46
2017-10-20T12:46:13.660Z,17.39
2017-10-20T12:47:13.671Z,17.52
2017-10-20T12:48:13.648Z,17.49
2017-10-20T12:49:17.542Z,17.5
2017-10-20T12:50:13.640Z,17.57
2017-10-20T12:51:13.642Z,17.47
2017-10-20T12:52:13.974Z,17.47
2017-10-20T12:53:13.649Z,17.52
2017-10-20T12:54:13.980Z,17.57
2017-10-20T12:55:13.624Z,17.57
2017-10-20T12:56:14.296Z,17.58